Time;durP1;ratioP1;P1;durP2;ratioP2;P2;SDS_P1;SDS_P2;PMS_P1;PMS_P2;Temp;Humidity;BMP_temperature;BMP_pressure;BME280_temperature;BME280_humidity;BME280_pressure;Samples;Min_cycle;Max_cycle;Signal;HPM_P1;HPM_P2
2022/04/21 00:00:31;;;;;;;4.03;2.90;;;;;;;;;;5103251;28;20285;-82
2022/04/21 00:03:00;;;;;;;2.93;2.73;;;;;;;;;;5102801;28;20216;-82
2022/04/21 00:05:28;;;;;;;3.80;3.43;;;;;;;;;;5103150;28;20244;-82
2022/04/21 00:07:55;;;;;;;3.93;3.40;;;;;;;;;;5103626;28;20753;-83
2022/04/21 00:10:22;;;;;;;3.70;3.33;;;;;;;;;;5101713;28;20236;-81
2022/04/21 00:12:50;;;;;;;4.13;3.33;;;;;;;;;;5098525;28;20213;-81
2022/04/21 00:15:17;;;;;;;3.73;3.13;;;;;;;;;;5098225;28;20285;-82
2022/04/21 00:17:45;;;;;;;4.03;3.30;;;;;;;;;;5097473;28;20599;-81
2022/04/21 00:20:14;;;;;;;5.37;3.10;;;;;;;;;;5097263;28;20244;-81
2022/04/21 00:25:27;;;;;;;4.80;3.30;;;;;;;;;;5104455;28;20277;-83
2022/04/21 00:27:55;;;;;;;3.70;3.33;;;;;;;;;;5104402;28;20217;-83
2022/04/21 00:30:23;;;;;;;3.40;3.10;;;;;;;;;;5098342;28;20231;-83
2022/04/21 00:32:50;;;;;;;3.83;3.40;;;;;;;;;;5097675;28;20224;-81
2022/04/21 00:35:19;;;;;;;3.03;2.83;;;;;;;;;;5099157;28;20232;-81
2022/04/21 00:37:47;;;;;;;4.10;3.53;;;;;;;;;;5097657;28;20205;-82
2022/04/21 00:40:14;;;;;;;4.40;3.13;;;;;;;;;;5095776;28;20231;-82
2022/04/21 00:42:41;;;;;;;3.40;3.10;;;;;;;;;;5096346;28;20225;-81
2022/04/21 00:45:09;;;;;;;3.90;3.53;;;;;;;;;;5095826;28;20232;-81
2022/04/21 00:47:40;;;;;;;3.57;3.27;;;;;;;;;;5097002;28;20254;-82
2022/04/21 00:50:07;;;;;;;3.47;3.17;;;;;;;;;;5096532;28;20232;-82
2022/04/21 00:52:36;;;;;;;3.50;3.20;;;;;;;;;;5097339;28;20239;-81
2022/04/21 00:55:03;;;;;;;3.97;3.27;;;;;;;;;;5080775;28;20232;-81
2022/04/21 00:57:30;;;;;;;3.97;3.37;;;;;;;;;;5097543;28;20223;-81
2022/04/21 00:59:57;;;;;;;5.37;3.83;;;;;;;;;;5093849;28;20291;-82
2022/04/21 01:05:11;;;;;;;5.73;3.43;;;;;;;;;;5098044;28;20564;-81
2022/04/21 01:07:40;;;;;;;4.87;3.40;;;;;;;;;;5091381;28;20643;-81
2022/04/21 01:10:07;;;;;;;3.77;3.47;;;;;;;;;;5094599;28;20237;-82
2022/04/21 01:12:34;;;;;;;4.00;3.70;;;;;;;;;;5096334;28;20223;-82
2022/04/21 01:15:01;;;;;;;3.97;3.67;;;;;;;;;;5095112;28;20232;-81
2022/04/21 01:17:33;;;;;;;3.87;3.47;;;;;;;;;;5096964;28;20200;-81
2022/04/21 01:20:00;;;;;;;4.27;3.10;;;;;;;;;;5096051;28;20248;-81
2022/04/21 01:22:29;;;;;;;5.73;3.40;;;;;;;;;;5096568;28;20236;-82
2022/04/21 01:24:56;;;;;;;3.70;3.30;;;;;;;;;;5095769;28;20631;-81
2022/04/21 01:27:24;;;;;;;4.97;3.40;;;;;;;;;;5094797;28;20245;-81
2022/04/21 01:29:51;;;;;;;4.30;3.87;;;;;;;;;;5091987;28;20656;-80
2022/04/21 01:32:18;;;;;;;3.50;3.20;;;;;;;;;;5092159;28;20224;-80
2022/04/21 01:34:45;;;;;;;10.13;3.33;;;;;;;;;;5092349;28;20282;-80
2022/04/21 01:42:43;;;;;;;4.30;3.90;;;;;;;;;;5092294;28;20226;-80
2022/04/21 01:45:10;;;;;;;4.23;3.83;;;;;;;;;;5091420;28;20240;-80
2022/04/21 01:47:37;;;;;;;4.47;4.17;;;;;;;;;;5095234;28;20587;-80
2022/04/21 01:50:07;;;;;;;4.40;4.00;;;;;;;;;;5096393;28;20232;-81
2022/04/21 01:52:35;;;;;;;4.53;4.03;;;;;;;;;;5095344;28;20693;-81
2022/04/21 01:55:03;;;;;;;5.83;4.20;;;;;;;;;;5096717;28;20238;-81
2022/04/21 01:57:30;;;;;;;4.10;3.80;;;;;;;;;;5098402;28;20548;-81
2022/04/21 01:59:57;;;;;;;5.73;3.90;;;;;;;;;;5098089;28;20232;-81
2022/04/21 02:02:24;;;;;;;4.67;4.27;;;;;;;;;;5100170;28;20224;-83
2022/04/21 02:04:51;;;;;;;5.07;3.97;;;;;;;;;;5098578;28;20263;-82
2022/04/21 02:07:18;;;;;;;4.07;3.77;;;;;;;;;;5098818;28;20228;-83
2022/04/21 02:09:45;;;;;;;4.17;3.87;;;;;;;;;;5097830;28;20236;-82
2022/04/21 02:12:14;;;;;;;4.63;3.80;;;;;;;;;;5099193;28;20238;-83
2022/04/21 02:14:41;;;;;;;5.63;4.03;;;;;;;;;;5098558;28;20324;-82
2022/04/21 02:17:08;;;;;;;4.33;3.90;;;;;;;;;;5099154;28;20197;-83
2022/04/21 02:19:36;;;;;;;5.97;3.87;;;;;;;;;;5098339;28;20633;-82
2022/04/21 02:22:03;;;;;;;4.93;4.20;;;;;;;;;;5098956;28;20247;-83
2022/04/21 02:24:30;;;;;;;4.80;4.30;;;;;;;;;;5100295;28;20235;-82
2022/04/21 02:26:57;;;;;;;4.13;3.70;;;;;;;;;;5099143;28;20216;-83
2022/04/21 02:29:25;;;;;;;4.63;4.20;;;;;;;;;;5099222;28;20262;-82
2022/04/21 02:31:52;;;;;;;5.80;4.20;;;;;;;;;;5097631;28;20224;-82
2022/04/21 02:34:19;;;;;;;4.07;3.77;;;;;;;;;;5098824;28;20204;-83
2022/04/21 02:36:46;;;;;;;4.13;3.83;;;;;;;;;;5099402;28;20578;-82
2022/04/21 02:39:13;;;;;;;4.47;4.07;;;;;;;;;;5098692;28;20227;-82
2022/04/21 02:41:41;;;;;;;4.47;4.07;;;;;;;;;;5100919;28;20235;-81
2022/04/21 02:44:08;;;;;;;4.80;4.10;;;;;;;;;;5099110;28;20672;-83
2022/04/21 02:46:36;;;;;;;4.13;3.70;;;;;;;;;;5100058;28;20205;-81
2022/04/21 02:49:03;;;;;;;4.80;4.27;;;;;;;;;;5101651;28;20224;-80
2022/04/21 02:51:31;;;;;;;4.87;4.03;;;;;;;;;;5099820;28;20243;-83
2022/04/21 02:59:28;;;;;;;5.30;4.00;;;;;;;;;;5098699;28;20357;-82
2022/04/21 03:01:57;;;;;;;4.10;3.70;;;;;;;;;;5098469;28;20224;-82
2022/04/21 03:04:24;;;;;;;4.30;3.97;;;;;;;;;;5097816;28;20200;-82
2022/04/21 03:06:51;;;;;;;5.20;4.30;;;;;;;;;;5098360;28;20197;-82
2022/04/21 03:09:18;;;;;;;4.60;4.20;;;;;;;;;;5098808;28;20207;-83
2022/04/21 03:11:48;;;;;;;5.27;4.20;;;;;;;;;;5097656;28;20575;-83
2022/04/21 03:14:15;;;;;;;4.33;3.93;;;;;;;;;;5096793;28;20239;-83
2022/04/21 03:16:42;;;;;;;6.43;4.13;;;;;;;;;;5096891;28;20205;-80
2022/04/21 03:19:11;;;;;;;7.40;4.47;;;;;;;;;;5093979;28;20207;-80
2022/04/21 03:24:23;;;;;;;4.23;3.83;;;;;;;;;;5106619;28;20200;-82
2022/04/21 03:26:51;;;;;;;4.40;3.97;;;;;;;;;;5089579;28;20603;-83
2022/04/21 03:29:18;;;;;;;4.73;4.33;;;;;;;;;;5108355;28;20207;-83
2022/04/21 03:31:48;;;;;;;4.50;4.10;;;;;;;;;;5109077;28;20229;-83
2022/04/21 03:34:18;;;;;;;5.87;4.27;;;;;;;;;;5111303;28;20230;-82
2022/04/21 03:36:48;;;;;;;6.03;4.27;;;;;;;;;;5107779;28;20213;-83
2022/04/21 03:39:15;;;;;;;5.33;4.20;;;;;;;;;;5107383;28;20265;-82
2022/04/21 03:41:42;;;;;;;4.67;4.27;;;;;;;;;;5108299;28;20228;-86
2022/04/21 03:44:11;;;;;;;4.57;4.10;;;;;;;;;;5107127;28;20237;-85
2022/04/21 03:46:38;;;;;;;4.50;4.10;;;;;;;;;;5108166;28;20244;-83
2022/04/21 03:49:05;;;;;;;5.30;4.20;;;;;;;;;;5107856;28;20228;-82
2022/04/21 03:51:34;;;;;;;4.27;3.97;;;;;;;;;;5107815;28;20225;-83
2022/04/21 03:54:01;;;;;;;4.30;3.77;;;;;;;;;;5109706;28;20207;-82
2022/04/21 03:56:29;;;;;;;5.17;4.40;;;;;;;;;;5108678;28;20235;-83
2022/04/21 03:58:56;;;;;;;4.60;4.20;;;;;;;;;;5107210;28;20199;-85
2022/04/21 04:01:23;;;;;;;5.10;4.60;;;;;;;;;;5099316;28;20327;-85
2022/04/21 04:03:51;;;;;;;5.13;3.90;;;;;;;;;;5097177;28;20248;-83
2022/04/21 04:11:50;;;;;;;5.10;4.03;;;;;;;;;;5098701;28;20238;-82
2022/04/21 04:14:17;;;;;;;4.50;4.10;;;;;;;;;;5098557;28;20238;-82
2022/04/21 04:16:45;;;;;;;5.00;4.47;;;;;;;;;;5103594;28;20278;-81
2022/04/21 04:19:12;;;;;;;4.60;4.20;;;;;;;;;;5130970;27;20219;-83
2022/04/21 04:21:39;;;;;;;4.20;3.90;;;;;;;;;;5128289;28;20239;-82
2022/04/21 04:24:08;;;;;;;5.03;4.53;;;;;;;;;;5126490;28;20218;-81
2022/04/21 04:26:35;;;;;;;5.37;4.87;;;;;;;;;;5121907;28;20232;-81
2022/04/21 04:29:03;;;;;;;9.43;4.60;;;;;;;;;;5119639;28;20257;-82
2022/04/21 04:31:30;;;;;;;7.43;4.60;;;;;;;;;;5122983;28;20295;-82
2022/04/21 04:33:58;;;;;;;5.23;4.83;;;;;;;;;;5124661;28;20210;-81
2022/04/21 04:36:25;;;;;;;5.70;4.40;;;;;;;;;;5124066;27;20371;-81
2022/04/21 04:38:52;;;;;;;5.63;4.83;;;;;;;;;;5122646;28;20210;-81
2022/04/21 04:44:06;;;;;;;5.63;4.90;;;;;;;;;;5112223;28;20247;-82
2022/04/21 04:46:35;;;;;;;5.13;4.63;;;;;;;;;;5110468;28;20200;-83
2022/04/21 04:49:02;;;;;;;9.13;5.67;;;;;;;;;;5109884;28;20242;-81
2022/04/21 04:51:29;;;;;;;9.27;5.03;;;;;;;;;;5121423;28;20235;-82
2022/04/21 04:53:56;;;;;;;6.67;5.13;;;;;;;;;;5124494;28;20206;-81
2022/04/21 04:56:27;;;;;;;8.23;5.20;;;;;;;;;;5123688;27;20228;-81
2022/04/21 04:58:54;;;;;;;11.23;4.97;;;;;;;;;;5113516;28;20547;-82
2022/04/21 05:01:26;;;;;;;11.30;5.17;;;;;;;;;;5117004;28;20235;-80
2022/04/21 05:03:54;;;;;;;8.50;5.60;;;;;;;;;;5111034;28;20647;-83
2022/04/21 05:06:21;;;;;;;15.17;5.70;;;;;;;;;;5128378;28;20235;-81
2022/04/21 05:08:48;;;;;;;8.37;4.93;;;;;;;;;;5118082;28;20234;-83
2022/04/21 05:11:16;;;;;;;15.63;5.27;;;;;;;;;;5119644;28;20239;-86
2022/04/21 05:13:44;;;;;;;8.80;5.63;;;;;;;;;;5124630;28;20205;-80
2022/04/21 05:16:11;;;;;;;8.23;5.67;;;;;;;;;;5120180;28;20241;-79
2022/04/21 05:18:39;;;;;;;7.50;4.73;;;;;;;;;;5122231;28;20203;-80
2022/04/21 05:21:06;;;;;;;11.17;5.33;;;;;;;;;;5123813;28;20239;-82
2022/04/21 05:23:35;;;;;;;8.90;5.50;;;;;;;;;;5123264;28;20209;-80
2022/04/21 05:26:02;;;;;;;9.13;5.20;;;;;;;;;;5118854;28;20228;-80
2022/04/21 05:28:30;;;;;;;11.63;6.50;;;;;;;;;;5116423;28;20228;-80
2022/04/21 05:30:58;;;;;;;5.97;5.30;;;;;;;;;;5119926;28;20239;-80
2022/04/21 05:33:26;;;;;;;9.30;5.90;;;;;;;;;;5121465;28;20589;-80
2022/04/21 05:35:54;;;;;;;8.47;6.27;;;;;;;;;;5120413;28;20231;-79
2022/04/21 05:38:22;;;;;;;12.47;5.60;;;;;;;;;;5122853;28;20200;-79
2022/04/21 05:40:49;;;;;;;7.80;6.37;;;;;;;;;;5121381;28;20718;-81
2022/04/21 05:43:18;;;;;;;6.13;5.60;;;;;;;;;;5123013;28;20230;-80
2022/04/21 05:45:45;;;;;;;6.60;6.10;;;;;;;;;;5121595;28;20748;-79
2022/04/21 05:48:15;;;;;;;7.43;5.87;;;;;;;;;;5118037;27;20229;-82
2022/04/21 05:50:42;;;;;;;7.97;5.67;;;;;;;;;;5131520;27;20233;-80
2022/04/21 05:53:12;;;;;;;9.77;5.80;;;;;;;;;;5143094;27;20758;-80
2022/04/21 05:55:39;;;;;;;5.73;5.20;;;;;;;;;;5145031;27;20244;-82
2022/04/21 05:58:06;;;;;;;9.17;6.10;;;;;;;;;;5145727;27;20220;-80
2022/04/21 06:00:33;;;;;;;8.33;6.37;;;;;;;;;;5145617;27;20238;-81
2022/04/21 06:03:00;;;;;;;8.57;6.40;;;;;;;;;;5144228;27;20225;-80
2022/04/21 06:05:29;;;;;;;7.67;5.97;;;;;;;;;;5135865;27;20229;-81
2022/04/21 06:07:56;;;;;;;7.37;5.87;;;;;;;;;;5122558;28;20235;-80
2022/04/21 06:10:23;;;;;;;8.50;6.20;;;;;;;;;;5126155;28;20238;-80
2022/04/21 06:12:50;;;;;;;6.40;5.77;;;;;;;;;;5126943;28;20230;-81
2022/04/21 06:15:17;;;;;;;6.97;5.80;;;;;;;;;;5124768;28;20242;-84
2022/04/21 06:17:45;;;;;;;7.80;5.77;;;;;;;;;;5126853;28;20207;-83
2022/04/21 06:20:12;;;;;;;6.57;5.77;;;;;;;;;;5126739;28;20235;-81
2022/04/21 06:22:41;;;;;;;9.37;6.07;;;;;;;;;;5128845;28;20290;-79
2022/04/21 06:25:08;;;;;;;7.20;5.90;;;;;;;;;;5124193;28;20257;-81
2022/04/21 06:27:35;;;;;;;6.17;5.57;;;;;;;;;;5123892;28;20698;-80
2022/04/21 06:30:02;;;;;;;5.83;5.23;;;;;;;;;;5122559;28;20243;-80
2022/04/21 06:32:29;;;;;;;6.57;5.90;;;;;;;;;;5123937;28;20235;-80
2022/04/21 06:34:57;;;;;;;8.10;6.00;;;;;;;;;;5123895;28;20243;-80
2022/04/21 06:37:24;;;;;;;7.03;5.70;;;;;;;;;;5124713;28;20191;-80
2022/04/21 06:39:52;;;;;;;8.07;6.07;;;;;;;;;;5124407;28;20224;-80
2022/04/21 06:42:19;;;;;;;6.90;6.03;;;;;;;;;;5111753;28;20224;-80
2022/04/21 06:50:16;;;;;;;6.60;6.00;;;;;;;;;;5104230;28;20791;-81
2022/04/21 06:52:43;;;;;;;9.17;5.77;;;;;;;;;;5104525;28;20232;-81
2022/04/21 06:55:11;;;;;;;7.13;5.90;;;;;;;;;;5104162;28;20232;-81
2022/04/21 06:57:39;;;;;;;6.30;5.70;;;;;;;;;;5105195;28;20211;-81
2022/04/21 07:00:06;;;;;;;6.33;5.50;;;;;;;;;;5104997;28;20244;-81
2022/04/21 07:02:37;;;;;;;8.60;6.00;;;;;;;;;;5134347;27;20228;-81
2022/04/21 07:05:05;;;;;;;6.53;5.43;;;;;;;;;;5143880;27;20235;-81
2022/04/21 07:07:32;;;;;;;11.07;5.33;;;;;;;;;;5145879;27;20203;-81
2022/04/21 07:10:00;;;;;;;6.27;5.60;;;;;;;;;;5145378;27;20639;-82
2022/04/21 07:12:29;;;;;;;6.23;5.63;;;;;;;;;;5145907;27;20230;-82
2022/04/21 07:14:57;;;;;;;7.37;5.30;;;;;;;;;;5145169;27;20283;-81
2022/04/21 07:17:24;;;;;;;7.87;5.40;;;;;;;;;;5145448;27;20210;-81
2022/04/21 07:19:51;;;;;;;6.97;5.57;;;;;;;;;;5144928;27;20242;-80
2022/04/21 07:22:20;;;;;;;8.33;5.60;;;;;;;;;;5145764;27;20231;-81
2022/04/21 07:24:47;;;;;;;8.97;5.60;;;;;;;;;;5144974;27;20774;-81
2022/04/21 07:27:14;;;;;;;6.43;5.43;;;;;;;;;;5146091;27;20208;-81
2022/04/21 07:29:42;;;;;;;7.40;5.57;;;;;;;;;;5145096;27;20246;-81
2022/04/21 07:32:10;;;;;;;9.37;5.87;;;;;;;;;;5147064;27;20227;-80
2022/04/21 07:34:37;;;;;;;10.80;5.63;;;;;;;;;;5140757;27;20235;-82
2022/04/21 07:37:05;;;;;;;7.93;5.20;;;;;;;;;;5138979;27;20210;-82
2022/04/21 07:39:32;;;;;;;9.70;5.70;;;;;;;;;;5143680;27;20223;-82
2022/04/21 07:41:59;;;;;;;5.57;4.80;;;;;;;;;;5144468;27;20231;-81
2022/04/21 07:44:27;;;;;;;7.20;5.00;;;;;;;;;;5145078;27;20235;-81
2022/04/21 07:46:56;;;;;;;20.93;6.30;;;;;;;;;;5144404;27;20210;-82
2022/04/21 07:54:53;;;;;;;4.97;4.47;;;;;;;;;;5143517;27;20263;-81
2022/04/21 07:57:20;;;;;;;5.93;4.80;;;;;;;;;;5149613;27;20237;-81
2022/04/21 07:59:48;;;;;;;5.13;4.37;;;;;;;;;;5145123;27;20242;-82
2022/04/21 08:02:17;;;;;;;7.27;4.70;;;;;;;;;;5145023;27;20219;-82
2022/04/21 08:04:44;;;;;;;5.60;4.70;;;;;;;;;;5126504;27;20236;-83
2022/04/21 08:07:12;;;;;;;5.17;4.57;;;;;;;;;;5116224;28;20213;-84
2022/04/21 08:09:39;;;;;;;6.30;4.40;;;;;;;;;;5106786;28;20241;-84
2022/04/21 08:12:07;;;;;;;4.70;4.20;;;;;;;;;;5122538;28;20224;-84
2022/04/21 08:14:35;;;;;;;8.77;4.70;;;;;;;;;;5122304;27;20219;-84
2022/04/21 08:17:05;;;;;;;6.10;4.43;;;;;;;;;;5122673;28;20204;-84
2022/04/21 08:19:34;;;;;;;5.13;4.63;;;;;;;;;;5121870;27;20227;-84
2022/04/21 08:22:01;;;;;;;4.30;3.90;;;;;;;;;;5121260;28;20243;-84
2022/04/21 08:32:43;;;;;;;6.03;4.13;;;;;;;;;;5096317;28;20227;-83
2022/04/21 08:35:13;;;;;;;4.00;3.57;;;;;;;;;;5095385;28;20233;-84
2022/04/21 08:37:40;;;;;;;5.43;3.97;;;;;;;;;;5095775;28;20208;-84
2022/04/21 08:40:10;;;;;;;5.37;3.83;;;;;;;;;;5101025;28;20247;-84
2022/04/21 08:42:38;;;;;;;4.80;3.20;;;;;;;;;;5124479;28;20226;-81
2022/04/21 08:45:05;;;;;;;3.70;3.27;;;;;;;;;;5131416;28;20541;-82
2022/04/21 08:47:33;;;;;;;5.37;3.67;;;;;;;;;;5132587;28;20208;-82
2022/04/21 08:50:04;;;;;;;5.93;3.87;;;;;;;;;;5132880;28;20251;-83
2022/04/21 08:52:34;;;;;;;4.17;3.60;;;;;;;;;;5133571;27;20220;-82
2022/04/21 08:55:01;;;;;;;9.97;3.17;;;;;;;;;;5133071;28;20223;-81
2022/04/21 08:57:30;;;;;;;6.80;3.40;;;;;;;;;;5132190;28;20187;-82
2022/04/21 08:59:57;;;;;;;5.67;4.50;;;;;;;;;;5138321;28;20231;-82
2022/04/21 09:02:34;;;;;;;3.83;3.07;;;;;;;;;;5147471;28;20227;-82
2022/04/21 09:05:01;;;;;;;5.97;3.10;;;;;;;;;;5147309;27;20234;-82
2022/04/21 09:07:29;;;;;;;5.27;3.30;;;;;;;;;;5145892;27;20223;-82
2022/04/21 09:10:11;;;;;;;5.50;3.37;;;;;;;;;;5137315;28;20239;-83
2022/04/21 09:12:41;;;;;;;4.73;2.90;;;;;;;;;;5137574;28;20249;-82
2022/04/21 09:15:09;;;;;;;4.93;2.70;;;;;;;;;;5149078;27;20445;-82
2022/04/21 09:17:40;;;;;;;4.60;2.90;;;;;;;;;;5129204;28;20207;-82
2022/04/21 09:20:08;;;;;;;3.63;2.87;;;;;;;;;;5127563;28;20238;-83
2022/04/21 09:22:35;;;;;;;3.50;2.90;;;;;;;;;;5128302;28;20235;-82
2022/04/21 09:25:02;;;;;;;5.20;3.07;;;;;;;;;;5125974;28;20238;-83
2022/04/21 09:27:41;;;;;;;3.60;2.90;;;;;;;;;;5126869;28;20577;-83
2022/04/21 09:30:12;;;;;;;4.88;3.03;;;;;;;;;;5126081;28;20234;-82
2022/04/21 09:32:40;;;;;;;4.47;2.80;;;;;;;;;;5127027;28;20300;-83
2022/04/21 09:35:08;;;;;;;2.88;2.47;;;;;;;;;;5126479;28;20236;-83
2022/04/21 09:37:45;;;;;;;4.57;2.80;;;;;;;;;;5129027;28;20673;-82
2022/04/21 09:40:12;;;;;;;3.40;3.10;;;;;;;;;;5129983;28;20236;-83
2022/04/21 09:42:41;;;;;;;4.57;2.88;;;;;;;;;;5115681;28;20220;-83
2022/04/21 09:47:54;;;;;;;3.08;2.88;;;;;;;;;;5110028;28;20215;-84
2022/04/21 09:50:22;;;;;;;2.90;2.70;;;;;;;;;;5109508;28;20247;-83
2022/04/21 09:52:49;;;;;;;3.30;2.70;;;;;;;;;;5110506;28;20231;-83
2022/04/21 09:55:23;;;;;;;5.70;2.70;;;;;;;;;;5108516;27;20233;-84
2022/04/21 09:57:53;;;;;;;3.38;2.55;;;;;;;;;;5109452;28;20220;-83
2022/04/21 10:00:22;;;;;;;2.83;2.53;;;;;;;;;;5108456;28;20228;-84
2022/04/21 10:02:50;;;;;;;5.15;2.40;;;;;;;;;;5108107;28;20221;-84
2022/04/21 10:05:18;;;;;;;3.33;2.80;;;;;;;;;;5107297;28;20246;-84
2022/04/21 10:07:46;;;;;;;3.65;2.67;;;;;;;;;;5106252;28;20212;-84
2022/04/21 10:10:13;;;;;;;2.83;2.45;;;;;;;;;;5106512;28;20236;-84
2022/04/21 10:12:42;;;;;;;4.63;2.80;;;;;;;;;;5108887;28;20239;-84
2022/04/21 10:15:11;;;;;;;3.00;2.70;;;;;;;;;;5107696;28;20236;-84
2022/04/21 10:17:39;;;;;;;2.40;2.20;;;;;;;;;;5107037;28;20213;-84
2022/04/21 10:20:07;;;;;;;2.63;2.28;;;;;;;;;;5107085;28;20239;-84
2022/04/21 10:22:34;;;;;;;2.88;2.47;;;;;;;;;;5108011;28;20239;-84
2022/04/21 10:25:03;;;;;;;5.45;3.05;;;;;;;;;;5107961;27;20225;-84
2022/04/21 10:27:37;;;;;;;2.75;2.42;;;;;;;;;;5107130;28;20203;-84
2022/04/21 10:30:04;;;;;;;3.38;2.45;;;;;;;;;;5107344;28;20247;-84
2022/04/21 10:38:25;;;;;;;4.57;2.30;;;;;;;;;;5179754;27;20302;-85
2022/04/21 10:40:55;;;;;;;2.83;2.10;;;;;;;;;;5131591;27;20232;-84
2022/04/21 10:43:22;;;;;;;4.05;2.47;;;;;;;;;;5097248;28;20208;-82
2022/04/21 10:46:03;;;;;;;2.35;2.00;;;;;;;;;;5094255;28;20228;-81
2022/04/21 10:48:40;;;;;;;2.35;2.15;;;;;;;;;;5090096;28;20710;-84
2022/04/21 10:51:07;;;;;;;2.50;2.30;;;;;;;;;;5089461;28;20335;-84
2022/04/21 10:59:29;;;;;;;2.20;2.10;;;;;;;;;;5088999;28;20370;-84
2022/04/21 11:01:56;;;;;;;3.28;2.33;;;;;;;;;;5090035;28;20260;-85
2022/04/21 11:04:25;;;;;;;3.20;1.98;;;;;;;;;;5090817;28;20204;-85
2022/04/21 11:06:54;;;;;;;2.15;1.95;;;;;;;;;;5084917;28;20204;-84
2022/04/21 11:09:40;;;;;;;2.97;1.92;;;;;;;;;;5090176;28;20564;-84
2022/04/21 11:12:09;;;;;;;2.10;2.00;;;;;;;;;;5090512;28;20228;-84
2022/04/21 11:14:37;;;;;;;2.67;2.08;;;;;;;;;;5091380;28;20497;-84
2022/04/21 11:17:05;;;;;;;2.78;1.80;;;;;;;;;;5092096;28;20225;-83
2022/04/21 11:19:36;;;;;;;1.92;1.67;;;;;;;;;;5089927;28;20258;-84
2022/04/21 11:22:04;;;;;;;2.75;1.80;;;;;;;;;;5094549;28;20237;-84
2022/04/21 11:24:46;;;;;;;2.67;1.70;;;;;;;;;;5093528;28;20243;-83
2022/04/21 11:27:16;;;;;;;3.50;1.98;;;;;;;;;;5096459;28;20219;-83
2022/04/21 11:29:43;;;;;;;6.18;1.80;;;;;;;;;;5091951;28;20232;-84
2022/04/21 11:32:10;;;;;;;1.98;1.85;;;;;;;;;;5091129;28;20785;-84
2022/04/21 11:34:37;;;;;;;3.33;2.08;;;;;;;;;;5091104;28;20720;-84
2022/04/21 11:37:06;;;;;;;2.92;1.95;;;;;;;;;;5091479;28;20651;-83
2022/04/21 11:39:39;;;;;;;2.10;1.90;;;;;;;;;;5090655;28;20249;-83
2022/04/21 11:42:06;;;;;;;2.20;2.00;;;;;;;;;;5090420;28;20244;-83
2022/04/21 11:44:34;;;;;;;3.50;2.05;;;;;;;;;;5090497;28;20236;-84
2022/04/21 11:47:03;;;;;;;3.40;2.00;;;;;;;;;;5072793;28;20228;-83
2022/04/21 11:49:30;;;;;;;2.50;2.30;;;;;;;;;;5079141;28;20228;-83
2022/04/21 11:51:57;;;;;;;3.10;1.80;;;;;;;;;;5078521;28;20233;-83
2022/04/21 11:54:24;;;;;;;1.98;1.80;;;;;;;;;;5077406;28;20213;-83
2022/04/21 11:56:51;;;;;;;3.38;2.05;;;;;;;;;;5077238;28;20229;-83
2022/04/21 11:59:18;;;;;;;1.83;1.73;;;;;;;;;;5077200;28;20214;-83
2022/04/21 12:07:19;;;;;;;1.95;1.85;;;;;;;;;;5076375;28;20201;-84
2022/04/21 12:09:48;;;;;;;2.10;1.90;;;;;;;;;;5076261;28;20236;-83
2022/04/21 12:12:15;;;;;;;3.50;2.03;;;;;;;;;;5076464;28;20279;-83
2022/04/21 12:14:43;;;;;;;1.95;1.75;;;;;;;;;;5075356;28;20233;-83
2022/04/21 12:17:12;;;;;;;1.58;1.48;;;;;;;;;;5076464;28;20221;-83
2022/04/21 12:19:39;;;;;;;1.50;1.40;;;;;;;;;;5078040;28;20225;-83
2022/04/21 12:22:07;;;;;;;5.40;1.77;;;;;;;;;;5076752;28;20232;-84
2022/04/21 12:24:36;;;;;;;2.55;1.75;;;;;;;;;;5076688;28;20233;-83
2022/04/21 12:27:04;;;;;;;1.95;1.40;;;;;;;;;;5077091;28;20220;-83
2022/04/21 12:29:32;;;;;;;2.92;1.65;;;;;;;;;;5075821;28;20240;-83
2022/04/21 12:32:01;;;;;;;1.55;1.45;;;;;;;;;;5076086;28;20225;-83
2022/04/21 12:34:31;;;;;;;1.67;1.38;;;;;;;;;;5075403;28;20229;-82
2022/04/21 12:36:59;;;;;;;2.85;1.65;;;;;;;;;;5076242;28;20657;-84
2022/04/21 12:39:27;;;;;;;2.08;1.67;;;;;;;;;;5075213;28;20236;-83
2022/04/21 12:41:54;;;;;;;3.70;1.75;;;;;;;;;;5075651;28;20222;-83
2022/04/21 12:44:23;;;;;;;1.77;1.50;;;;;;;;;;5063505;28;20210;-83
2022/04/21 12:47:00;;;;;;;1.35;1.30;;;;;;;;;;5071206;28;20346;-83
2022/04/21 12:49:46;;;;;;;2.13;1.60;;;;;;;;;;5068457;28;20230;-83
2022/04/21 12:52:14;;;;;;;1.60;1.50;;;;;;;;;;5055610;28;20266;-83
2022/04/21 12:54:41;;;;;;;3.20;1.63;;;;;;;;;;5058262;28;20226;-83
2022/04/21 12:57:09;;;;;;;1.77;1.60;;;;;;;;;;5054695;28;20228;-84
2022/04/21 12:59:36;;;;;;;2.35;1.73;;;;;;;;;;5053691;28;20260;-83
2022/04/21 13:02:03;;;;;;;2.60;1.65;;;;;;;;;;5055594;28;20313;-83
2022/04/21 13:04:30;;;;;;;2.20;1.50;;;;;;;;;;5055247;28;20313;-80
2022/04/21 13:06:57;;;;;;;3.78;1.67;;;;;;;;;;5054613;28;20650;-81
2022/04/21 13:09:25;;;;;;;2.47;1.40;;;;;;;;;;5053668;28;20206;-80
2022/04/21 13:11:52;;;;;;;2.35;1.35;;;;;;;;;;5054637;28;20232;-80
2022/04/21 13:14:19;;;;;;;1.45;1.35;;;;;;;;;;5054566;28;20479;-80
2022/04/21 13:16:46;;;;;;;2.72;1.60;;;;;;;;;;5054377;28;20693;-80
2022/04/21 13:19:13;;;;;;;1.50;1.40;;;;;;;;;;5053837;28;20285;-79
2022/04/21 13:21:56;;;;;;;1.58;1.48;;;;;;;;;;5053650;28;20233;-79
2022/04/21 13:24:23;;;;;;;1.55;1.40;;;;;;;;;;5053697;28;20256;-77
2022/04/21 13:26:51;;;;;;;2.25;1.42;;;;;;;;;;5059492;28;20213;-81
2022/04/21 13:29:19;;;;;;;3.17;1.80;;;;;;;;;;5057985;28;20241;-81
2022/04/21 13:34:31;;;;;;;1.80;1.30;;;;;;;;;;5071189;28;20282;-79
2022/04/21 13:36:58;;;;;;;1.58;1.48;;;;;;;;;;5072607;28;20312;-79
2022/04/21 13:39:25;;;;;;;1.65;1.48;;;;;;;;;;5074034;28;20208;-80
2022/04/21 13:41:53;;;;;;;1.92;1.80;;;;;;;;;;5074747;28;20217;-80
2022/04/21 13:44:20;;;;;;;1.40;1.30;;;;;;;;;;5074821;28;20232;-82
2022/04/21 13:46:47;;;;;;;2.45;1.40;;;;;;;;;;5074479;28;20371;-79
2022/04/21 13:49:15;;;;;;;4.28;1.60;;;;;;;;;;5075217;28;20216;-81
2022/04/21 13:51:42;;;;;;;2.92;1.92;;;;;;;;;;5076445;28;20725;-81
2022/04/21 13:54:10;;;;;;;1.75;1.65;;;;;;;;;;5074727;28;20189;-80
2022/04/21 13:56:37;;;;;;;1.63;1.52;;;;;;;;;;5073744;28;20704;-81
2022/04/21 13:59:05;;;;;;;2.95;1.48;;;;;;;;;;5073220;28;20236;-80
2022/04/21 14:01:33;;;;;;;2.22;1.65;;;;;;;;;;5072239;28;20229;-80
2022/04/21 14:04:00;;;;;;;1.50;1.40;;;;;;;;;;5064127;28;20204;-77
2022/04/21 14:06:27;;;;;;;3.47;1.58;;;;;;;;;;5071710;28;20229;-81
2022/04/21 14:08:54;;;;;;;1.42;1.33;;;;;;;;;;5071435;28;20205;-78
2022/04/21 14:11:22;;;;;;;3.55;1.63;;;;;;;;;;5071255;28;20244;-81
2022/04/21 14:13:50;;;;;;;2.50;1.35;;;;;;;;;;5073094;28;20205;-84
2022/04/21 14:16:18;;;;;;;2.42;1.33;;;;;;;;;;5072471;28;20316;-81
2022/04/21 14:18:46;;;;;;;1.38;1.30;;;;;;;;;;5072533;28;20576;-83
2022/04/21 14:21:14;;;;;;;6.15;2.25;;;;;;;;;;5066231;28;20233;-83
2022/04/21 14:23:42;;;;;;;6.80;1.88;;;;;;;;;;5073300;28;20186;-81
2022/04/21 14:26:09;;;;;;;2.33;1.73;;;;;;;;;;5074189;28;20229;-80
2022/04/21 14:28:38;;;;;;;2.28;1.25;;;;;;;;;;5074232;28;20193;-81
2022/04/21 14:31:05;;;;;;;3.75;1.50;;;;;;;;;;5073167;28;20264;-80
2022/04/21 14:33:34;;;;;;;2.42;1.60;;;;;;;;;;5074204;28;20186;-83
2022/04/21 14:36:04;;;;;;;1.35;1.25;;;;;;;;;;5073887;28;20232;-81
2022/04/21 14:44:07;;;;;;;1.83;1.40;;;;;;;;;;5073599;28;20247;-80
2022/04/21 14:46:36;;;;;;;1.80;1.40;;;;;;;;;;5051425;28;20395;-81
2022/04/21 14:49:05;;;;;;;1.33;1.27;;;;;;;;;;5051809;28;20678;-79
2022/04/21 14:51:32;;;;;;;2.15;1.25;;;;;;;;;;5051632;28;20256;-82
2022/04/21 14:53:59;;;;;;;3.10;1.50;;;;;;;;;;5052482;28;20232;-83
2022/04/21 14:56:26;;;;;;;4.07;1.40;;;;;;;;;;5071247;28;20241;-82
2022/04/21 14:58:54;;;;;;;11.65;3.67;;;;;;;;;;5072687;28;20225;-82
2022/04/21 15:01:22;;;;;;;1.17;1.17;;;;;;;;;;5072156;28;20244;-83
2022/04/21 15:03:50;;;;;;;1.15;1.02;;;;;;;;;;5071956;28;20216;-83
2022/04/21 15:06:18;;;;;;;1.95;1.20;;;;;;;;;;5071355;28;20237;-82
2022/04/21 15:08:45;;;;;;;1.52;1.40;;;;;;;;;;5071964;28;20186;-82
2022/04/21 15:11:12;;;;;;;1.52;1.35;;;;;;;;;;5075323;28;20252;-82
2022/04/21 15:13:40;;;;;;;2.20;1.65;;;;;;;;;;5076027;28;20236;-82
2022/04/21 15:16:07;;;;;;;2.60;1.50;;;;;;;;;;5071569;28;20244;-82
2022/04/21 15:18:34;;;;;;;2.45;1.05;;;;;;;;;;5071878;28;20232;-83
2022/04/21 15:21:02;;;;;;;1.27;1.17;;;;;;;;;;5070594;28;20245;-82
2022/04/21 15:23:30;;;;;;;1.38;1.27;;;;;;;;;;5072505;28;20680;-83
2022/04/21 15:25:58;;;;;;;1.95;1.38;;;;;;;;;;5071329;28;20737;-83
2022/04/21 15:28:25;;;;;;;1.38;1.27;;;;;;;;;;5060443;28;20554;-83
2022/04/21 15:30:53;;;;;;;2.90;1.40;;;;;;;;;;5064439;28;20240;-84
2022/04/21 15:33:20;;;;;;;2.65;1.42;;;;;;;;;;5068450;28;20229;-84
2022/04/21 15:35:48;;;;;;;1.50;1.40;;;;;;;;;;5074914;28;20244;-84
2022/04/21 15:38:15;;;;;;;1.42;1.33;;;;;;;;;;5074818;28;20217;-81
2022/04/21 15:40:44;;;;;;;1.45;1.05;;;;;;;;;;5075432;28;20240;-84
2022/04/21 15:43:11;;;;;;;2.22;1.38;;;;;;;;;;5074796;28;20221;-83
2022/04/21 15:45:39;;;;;;;2.80;0.98;;;;;;;;;;5071697;28;20221;-81
2022/04/21 15:48:06;;;;;;;2.67;1.25;;;;;;;;;;5066147;28;20193;-83
2022/04/21 15:50:34;;;;;;;1.80;1.40;;;;;;;;;;5063552;28;20584;-83
2022/04/21 15:58:48;;;;;;;2.47;1.30;;;;;;;;;;5094803;28;20307;-83
2022/04/21 15:58:55;;;;;;;2.05;1.50;;;;;;;;;;5073969;28;20208;-82
2022/04/21 16:01:24;;;;;;;1.48;1.35;;;;;;;;;;5074258;28;20327;-82
2022/04/21 16:03:51;;;;;;;1.30;1.15;;;;;;;;;;5074657;28;20213;-83
2022/04/21 16:06:19;;;;;;;2.63;1.40;;;;;;;;;;5073328;28;20233;-83